Time;durP1;ratioP1;P1;durP2;ratioP2;P2;SDS_P1;SDS_P2;PMS_P1;PMS_P2;Temp;Humidity;BMP_temperature;BMP_pressure;BME280_temperature;BME280_humidity;BME280_pressure;Samples;Min_cycle;Max_cycle;Signal;HPM_P1;HPM_P2
2022/05/04 00:01:29;;;;;;;6.63;5.83;;;;;;;9.53;52.78;101154.48;1593225;89;21760;-76
2022/05/04 00:04:01;;;;;;;7.53;5.22;;;;;;;9.56;52.87;101162.21;1592274;89;21600;-76
2022/05/04 00:06:28;;;;;;;8.88;5.53;;;;;;;9.58;52.94;101154.03;1593034;89;21164;-76
2022/05/04 00:08:54;;;;;;;6.08;4.83;;;;;;;9.58;53.00;101163.06;1593042;89;21016;-75
2022/05/04 00:11:20;;;;;;;9.25;5.08;;;;;;;9.58;53.07;101152.73;1591137;90;21083;-75
2022/05/04 00:13:46;;;;;;;10.93;5.97;;;;;;;9.58;53.11;101155.32;1592806;89;21168;-76
2022/05/04 00:16:12;;;;;;;5.80;5.10;;;;;;;9.60;53.26;101150.58;1592393;90;21525;-75
2022/05/04 00:18:38;;;;;;;10.25;5.12;;;;;;;9.62;53.28;101158.32;1592957;89;21112;-75
2022/05/04 00:21:07;;;;;;;6.47;5.03;;;;;;;9.65;53.34;101156.16;1592557;90;21132;-75
2022/05/04 00:23:35;;;;;;;7.75;5.92;;;;;;;9.66;53.40;101157.45;1580298;90;21722;-74
2022/05/04 00:26:02;;;;;;;7.00;5.60;;;;;;;9.69;53.50;101153.99;1591916;89;21080;-74
2022/05/04 00:28:28;;;;;;;9.45;6.28;;;;;;;9.69;53.58;101154.86;1591643;90;21077;-74
2022/05/04 00:30:54;;;;;;;7.10;6.30;;;;;;;9.72;53.74;101152.69;1592940;89;21008;-75
2022/05/04 00:33:20;;;;;;;7.90;6.03;;;;;;;9.77;53.82;101152.24;1592872;89;21131;-76
2022/05/04 00:35:46;;;;;;;8.80;6.13;;;;;;;9.81;53.89;101153.95;1592809;89;20980;-76
2022/05/04 00:38:15;;;;;;;9.35;6.42;;;;;;;9.85;53.95;101142.74;1592215;90;21093;-75
2022/05/04 00:40:41;;;;;;;9.63;6.80;;;;;;;9.90;54.01;101148.71;1581278;89;20950;-75
2022/05/04 00:43:25;;;;;;;9.93;7.10;;;;;;;9.93;54.09;101149.55;1580366;90;22428;-75
2022/05/04 00:45:51;;;;;;;9.15;7.03;;;;;;;9.98;54.16;101150.83;1573945;89;21143;-75
2022/05/04 00:48:18;;;;;;;12.05;7.75;;;;;;;10.02;54.17;101156.84;1593687;89;21474;-76
2022/05/04 00:50:47;;;;;;;10.45;7.35;;;;;;;10.02;54.27;101153.82;1589664;90;20915;-75
2022/05/04 00:53:13;;;;;;;10.95;7.58;;;;;;;10.04;54.40;101157.69;1566571;91;20998;-75
2022/05/04 00:55:40;;;;;;;11.53;7.65;;;;;;;10.06;54.43;101163.27;1582307;90;21461;-76
2022/05/04 01:00:53;;;;;;;12.53;6.08;;;;;;;10.10;54.58;101166.27;1567536;90;20950;-75
2022/05/04 01:03:19;;;;;;;8.60;7.28;;;;;;;10.11;54.65;101163.25;1582736;90;21450;-75
2022/05/04 01:05:46;;;;;;;9.10;7.47;;;;;;;10.12;54.71;101165.83;1580808;89;21024;-75
2022/05/04 01:08:12;;;;;;;11.53;8.75;;;;;;;10.14;54.81;101164.53;1582021;90;21529;-75
2022/05/04 01:10:44;;;;;;;12.30;8.73;;;;;;;10.16;54.86;101165.37;1580287;90;21632;-75
2022/05/04 01:13:10;;;;;;;10.90;7.97;;;;;;;10.16;54.95;101165.37;1561110;90;21100;-75
2022/05/04 01:15:37;;;;;;;9.80;7.67;;;;;;;10.18;55.07;101170.97;1581017;89;21085;-75
2022/05/04 01:18:03;;;;;;;11.30;7.30;;;;;;;10.20;55.10;101173.14;1580726;90;21097;-75
2022/05/04 01:20:29;;;;;;;9.35;7.60;;;;;;;10.21;55.17;101177.44;1579079;90;21101;-75
2022/05/04 01:22:55;;;;;;;11.23;7.63;;;;;;;10.24;55.22;101173.98;1575497;90;21448;-76
2022/05/04 01:25:21;;;;;;;9.43;7.27;;;;;;;10.26;55.25;101172.25;1580481;90;21557;-75
2022/05/04 01:27:47;;;;;;;11.17;8.37;;;;;;;10.29;55.33;101172.23;1580189;90;21493;-75
2022/05/04 01:30:13;;;;;;;10.70;8.30;;;;;;;10.31;55.43;101174.38;1571656;90;21015;-76
2022/05/04 01:32:39;;;;;;;14.10;9.35;;;;;;;10.31;55.48;101168.34;1564594;90;21776;-75
2022/05/04 01:35:06;;;;;;;10.43;8.33;;;;;;;10.30;55.50;101169.21;1580720;90;21124;-75
2022/05/04 01:37:32;;;;;;;13.20;8.50;;;;;;;10.30;55.57;101175.67;1564015;90;21708;-75
2022/05/04 01:39:57;;;;;;;11.83;7.87;;;;;;;10.30;55.67;101181.70;1584218;90;21777;-75
2022/05/04 01:42:24;;;;;;;13.43;7.83;;;;;;;10.31;55.77;101177.39;1591692;89;21008;-76
2022/05/04 01:44:51;;;;;;;8.13;7.28;;;;;;;10.32;55.84;101177.38;1591391;90;21028;-75
2022/05/04 01:47:17;;;;;;;;;;;;;;;10.32;55.85;101177.38;1573287;90;21134;-75
2022/05/04 01:49:43;;;;;;;14.93;7.83;;;;;;;10.32;56.61;101179.11;1590221;90;20229;-75
2022/05/04 01:52:09;;;;;;;10.45;8.00;;;;;;;10.32;55.97;101180.41;1590098;90;21570;-74
2022/05/04 01:54:35;;;;;;;11.13;8.40;;;;;;;10.31;56.03;101182.13;1591415;89;21056;-75
2022/05/04 01:57:00;;;;;;;12.93;8.67;;;;;;;10.32;56.15;101178.67;1591616;90;21127;-75
2022/05/04 01:59:26;;;;;;;11.80;8.20;;;;;;;10.32;56.18;101175.23;1590477;88;21042;-75
2022/05/04 02:01:53;;;;;;;10.60;8.30;;;;;;;10.31;56.24;101179.98;1588658;90;20934;-75
2022/05/04 02:04:19;;;;;;;12.23;8.37;;;;;;;10.31;56.29;101181.27;1585482;90;21628;-75
2022/05/04 02:06:46;;;;;;;13.40;8.70;;;;;;;10.29;56.35;101185.16;1591108;90;21434;-75
2022/05/04 02:09:12;;;;;;;10.68;7.85;;;;;;;10.29;56.43;101186.45;1580225;90;21502;-74
2022/05/04 02:11:38;;;;;;;8.53;7.43;;;;;;;10.31;56.49;101187.30;1587898;90;21010;-75
2022/05/04 02:14:05;;;;;;;9.10;6.95;;;;;;;10.28;56.54;101193.34;1587414;90;21661;-75
2022/05/04 02:16:31;;;;;;;7.35;6.65;;;;;;;10.27;56.61;101189.04;1586971;88;21103;-75
2022/05/04 02:18:59;;;;;;;8.78;6.87;;;;;;;10.24;56.68;101185.61;1587368;90;21098;-74
2022/05/04 02:21:25;;;;;;;7.45;6.70;;;;;;;10.24;56.75;101186.91;1590046;90;20947;-75
2022/05/04 02:23:52;;;;;;;13.53;6.87;;;;;;;10.24;56.81;101190.35;1590118;90;20959;-75
2022/05/04 02:26:20;;;;;;;7.40;6.67;;;;;;;10.25;56.81;101188.63;1588254;88;21598;-75
2022/05/04 02:28:46;;;;;;;7.70;6.80;;;;;;;10.24;56.88;101190.35;1590214;90;21727;-75
2022/05/04 02:31:12;;;;;;;8.97;6.83;;;;;;;10.23;56.94;101192.51;1589884;90;20904;-74
2022/05/04 02:33:47;;;;;;;7.17;6.47;;;;;;;10.22;57.04;101195.10;1579328;90;21492;-76
2022/05/04 02:38:59;;;;;;;6.50;5.90;;;;;;;10.22;57.14;101190.79;1573137;91;21512;-75
2022/05/04 02:41:25;;;;;;;8.80;7.27;;;;;;;10.23;57.17;101193.80;1573719;88;21187;-76
2022/05/04 02:43:51;;;;;;;8.00;6.47;;;;;;;10.22;57.25;101193.37;1564638;91;21036;-75
2022/05/04 02:46:22;;;;;;;8.88;6.53;;;;;;;10.23;57.29;101193.80;1580348;90;21049;-76
2022/05/04 02:48:49;;;;;;;7.70;7.00;;;;;;;10.23;57.33;101192.94;1580785;90;21572;-75
2022/05/04 02:51:15;;;;;;;6.78;6.17;;;;;;;10.22;57.35;101192.52;1578603;90;21156;-75
2022/05/04 02:53:42;;;;;;;7.40;6.17;;;;;;;10.21;57.45;101195.53;1580940;90;21136;-75
2022/05/04 02:56:09;;;;;;;7.90;6.78;;;;;;;10.22;57.52;101194.67;1561162;90;21374;-76
2022/05/04 02:58:35;;;;;;;8.30;7.50;;;;;;;10.22;57.56;101192.08;1580613;89;21184;-75
2022/05/04 03:04:06;;;;;;;7.10;6.40;;;;;;;10.18;57.68;101194.22;1571500;90;21061;-75
2022/05/04 03:06:34;;;;;;;8.15;6.87;;;;;;;10.16;57.74;101198.97;1580845;90;21620;-75
2022/05/04 03:09:01;;;;;;;7.80;6.00;;;;;;;10.12;57.75;101206.31;1576445;90;21683;-75
2022/05/04 03:14:12;;;;;;;9.80;6.50;;;;;;;10.06;57.94;101204.62;1572522;90;21562;-75
2022/05/04 03:16:40;;;;;;;9.43;7.40;;;;;;;10.00;58.01;101198.61;1580512;90;21089;-75
2022/05/04 03:19:07;;;;;;;8.07;7.23;;;;;;;9.96;58.07;101201.21;1580885;90;21065;-75
2022/05/04 03:21:34;;;;;;;13.05;7.25;;;;;;;9.94;58.13;101200.80;1580502;90;21376;-75
2022/05/04 03:24:00;;;;;;;;;;;;;;;9.89;58.19;101203.39;1585361;90;20965;-74
2022/05/04 03:26:26;;;;;;;9.68;7.75;;;;;;;9.84;58.94;101201.29;1582901;90;20120;-75
2022/05/04 03:28:52;;;;;;;7.47;6.53;;;;;;;9.81;58.35;101205.61;1581388;90;20910;-75
2022/05/04 03:31:18;;;;;;;12.18;7.37;;;;;;;9.76;58.39;101204.33;1580793;90;21069;-75
2022/05/04 03:33:48;;;;;;;9.95;7.55;;;;;;;9.73;58.50;101203.05;1580581;90;21124;-76
2022/05/04 03:36:14;;;;;;;9.00;8.00;;;;;;;9.72;58.53;101203.91;1580376;90;21053;-75
2022/05/04 03:38:40;;;;;;;11.18;9.28;;;;;;;9.71;58.58;101203.91;1574943;90;21099;-75
2022/05/04 03:41:06;;;;;;;10.28;9.05;;;;;;;9.70;58.54;101208.22;1580540;90;21079;-75
2022/05/04 03:43:33;;;;;;;9.60;8.43;;;;;;;9.68;58.71;101210.37;1591419;89;21060;-74
2022/05/04 03:46:23;;;;;;;9.90;8.80;;;;;;;9.68;58.81;101206.08;1593276;88;21111;-75
2022/05/04 03:48:56;;;;;;;11.20;9.18;;;;;;;9.67;58.82;101207.37;1593785;90;20993;-75
2022/05/04 03:51:23;;;;;;;13.80;9.78;;;;;;;9.65;58.97;101207.38;1588143;89;20952;-75
2022/05/04 03:53:53;;;;;;;10.05;9.00;;;;;;;9.66;59.06;101212.11;1584709;90;20998;-75
2022/05/04 03:56:20;;;;;;;8.70;7.80;;;;;;;9.65;59.10;101207.38;1566691;90;20936;-75
2022/05/04 03:58:52;;;;;;;11.48;10.30;;;;;;;9.67;59.38;101212.10;1589661;88;295164;-75
2022/05/04 04:01:18;;;;;;;13.90;9.07;;;;;;;9.67;59.30;101216.41;1598939;88;21116;-75
2022/05/04 04:03:45;;;;;;;11.80;8.45;;;;;;;9.71;59.33;101218.11;1628519;86;20976;-76
2022/05/04 04:06:11;;;;;;;13.75;9.63;;;;;;;9.74;59.39;101215.53;1605051;88;20961;-76
2022/05/04 04:08:37;;;;;;;13.43;9.55;;;;;;;9.77;59.46;101217.67;1604605;88;20932;-76
2022/05/04 04:11:04;;;;;;;13.30;9.57;;;;;;;9.80;59.52;101219.38;1624720;86;20924;-76
2022/05/04 04:13:30;;;;;;;14.73;10.95;;;;;;;9.83;59.54;101218.94;1596188;89;20929;-75
2022/05/04 04:15:57;;;;;;;10.75;9.43;;;;;;;9.84;59.65;101217.22;1607085;88;21368;-75
2022/05/04 04:18:25;;;;;;;11.90;9.08;;;;;;;9.83;59.70;101221.53;1597605;88;20988;-75
2022/05/04 04:23:38;;;;;;;15.55;10.05;;;;;;;9.92;59.80;101235.67;1623100;86;21007;-78
2022/05/04 04:26:05;;;;;;;16.05;10.65;;;;;;;9.99;59.81;101234.36;1628964;87;20994;-78
2022/05/04 04:28:38;;;;;;;17.77;10.08;;;;;;;10.05;59.90;101237.78;1627751;86;20903;-78
2022/05/04 04:31:09;;;;;;;13.90;10.13;;;;;;;10.07;59.86;101236.48;1622244;86;21085;-77
2022/05/04 04:33:36;;;;;;;13.43;10.90;;;;;;;10.07;59.93;101236.48;1616463;88;21138;-76
2022/05/04 04:36:04;;;;;;;12.37;10.03;;;;;;;10.09;59.96;101240.78;1621185;87;20926;-76
2022/05/04 04:38:30;;;;;;;11.85;10.38;;;;;;;10.10;59.98;101236.47;1627844;88;20950;-77
2022/05/04 04:40:58;;;;;;;14.13;10.23;;;;;;;10.14;60.08;101248.52;1628409;87;20949;-77
2022/05/04 04:43:24;;;;;;;13.18;10.43;;;;;;;10.16;60.12;101248.08;1628348;86;20902;-77
2022/05/04 04:45:51;;;;;;;12.67;11.33;;;;;;;10.19;60.17;101246.38;1625730;86;20979;-77
2022/05/04 04:48:18;;;;;;;14.28;10.25;;;;;;;10.24;60.19;101246.35;1618552;86;21000;-77
2022/05/04 04:50:46;;;;;;;10.75;9.65;;;;;;;10.28;60.28;101246.77;1615065;88;20934;-80
2022/05/04 04:53:14;;;;;;;12.58;9.90;;;;;;;10.32;60.26;101245.02;1621783;86;21435;-78
2022/05/04 04:55:45;;;;;;;12.65;9.85;;;;;;;10.38;60.37;101247.58;1627485;87;20964;-77
2022/05/04 04:58:11;;;;;;;13.13;10.50;;;;;;;10.40;60.33;101253.61;1626357;86;20910;-78
2022/05/04 05:00:41;;;;;;;11.75;9.50;;;;;;;10.43;60.40;101259.59;1626913;87;20985;-77
2022/05/04 05:03:08;;;;;;;21.93;9.68;;;;;;;10.46;60.39;101256.98;1594911;88;20949;-77
2022/05/04 05:05:34;;;;;;;11.93;9.68;;;;;;;10.53;60.48;101257.37;1627980;88;20988;-77
2022/05/04 05:08:04;;;;;;;11.97;9.35;;;;;;;10.60;60.49;101259.06;1626943;88;20936;-78
2022/05/04 05:10:30;;;;;;;12.30;9.20;;;;;;;10.68;60.52;101264.63;1628342;87;20988;-77
2022/05/04 05:12:56;;;;;;;9.33;8.40;;;;;;;10.71;60.41;101262.88;1625150;87;21728;-77
2022/05/04 05:18:07;;;;;;;9.80;8.78;;;;;;;10.81;60.51;101277.91;1628194;87;20968;-77
2022/05/04 05:20:33;;;;;;;16.13;9.57;;;;;;;10.86;60.57;101273.14;1628580;87;20959;-76
2022/05/04 05:23:02;;;;;;;8.35;7.55;;;;;;;10.95;60.58;101282.09;1623396;88;20952;-76
2022/05/04 05:25:30;;;;;;;11.35;8.13;;;;;;;11.00;60.59;101276.89;1606780;88;20982;-76
2022/05/04 05:27:57;;;;;;;11.40;8.58;;;;;;;11.05;60.56;101278.16;1619992;88;20954;-76
2022/05/04 05:30:23;;;;;;;;;;;;;;;11.09;60.55;101271.65;1615119;88;20985;-76
2022/05/04 05:32:49;;;;;;;10.40;8.35;;;;;;;11.09;60.69;101274.67;1613851;88;20232;-76
2022/05/04 05:35:15;;;;;;;15.23;8.43;;;;;;;11.09;60.60;101263.88;1628034;87;20900;-76
2022/05/04 05:37:41;;;;;;;10.30;8.00;;;;;;;11.12;60.61;101264.30;1598442;87;20946;-75
2022/05/04 05:40:09;;;;;;;10.63;8.47;;;;;;;11.18;60.69;101263.81;1599700;89;21012;-76
2022/05/04 05:42:35;;;;;;;9.88;7.62;;;;;;;11.28;60.76;101273.66;1625049;86;21339;-76
2022/05/04 05:45:01;;;;;;;9.93;7.93;;;;;;;11.35;60.71;101277.92;1604125;88;21049;-76
2022/05/04 05:47:28;;;;;;;13.40;8.60;;;;;;;11.45;60.81;101281.25;1598519;88;21702;-76
2022/05/04 05:49:54;;;;;;;13.25;8.90;;;;;;;11.66;60.83;101278.47;1583582;89;28133;-76
2022/05/04 05:52:20;;;;;;;10.20;8.43;;;;;;;11.77;60.81;101279.26;1600908;88;21004;-77
2022/05/04 05:54:46;;;;;;;16.53;8.97;;;;;;;11.81;60.69;101286.56;1628448;86;21694;-77
2022/05/04 05:57:12;;;;;;;11.65;8.15;;;;;;;11.81;60.68;101292.60;1605524;88;21444;-77
2022/05/04 05:59:39;;;;;;;11.17;8.83;;;;;;;11.80;60.77;101291.32;1601108;88;20926;-77
2022/05/04 06:02:06;;;;;;;12.00;8.48;;;;;;;11.78;60.68;101291.34;1594218;88;21452;-77
2022/05/04 06:04:32;;;;;;;10.30;8.68;;;;;;;11.80;60.78;101292.62;1609918;88;21080;-77
2022/05/04 06:06:58;;;;;;;9.73;8.20;;;;;;;11.85;60.81;101286.95;1616421;87;20977;-77
2022/05/04 06:09:24;;;;;;;10.30;8.00;;;;;;;11.85;60.85;101265.78;1613168;87;20970;-77
2022/05/04 06:11:52;;;;;;;8.80;7.90;;;;;;;12.06;60.83;101278.91;1582401;88;21670;-78
2022/05/04 06:14:19;;;;;;;12.30;8.58;;;;;;;12.08;60.68;101278.45;1628572;86;20979;-77
2022/05/04 06:16:45;;;;;;;9.27;8.30;;;;;;;12.20;60.79;101277.02;1630808;87;21415;-77
2022/05/04 06:19:11;;;;;;;13.45;8.28;;;;;;;12.29;60.75;101279.94;1606500;87;21228;-77
2022/05/04 06:21:37;;;;;;;13.55;8.00;;;;;;;12.36;60.86;101286.77;1601602;88;320713;-77
2022/05/04 06:24:04;;;;;;;11.90;8.33;;;;;;;12.45;60.69;101297.03;1599024;87;20991;-77
2022/05/04 06:26:31;;;;;;;10.72;7.80;;;;;;;12.48;60.70;101294.80;1624471;86;21008;-77
2022/05/04 06:28:57;;;;;;;;;;;;;;;12.48;60.70;101299.99;1608568;88;20971;-77
2022/05/04 06:34:07;;;;;;;12.13;7.90;;;;;;;12.65;60.80;101294.58;1610696;87;20952;-77
2022/05/04 06:36:35;;;;;;;10.23;7.33;;;;;;;12.81;60.82;101289.59;1658593;86;20962;-77
2022/05/04 06:39:01;;;;;;;15.48;7.83;;;;;;;12.98;60.83;101296.70;1647911;86;21497;-76
2022/05/04 06:41:27;;;;;;;7.97;7.15;;;;;;;13.16;60.79;101300.32;1662875;85;20956;-76
2022/05/04 06:43:54;;;;;;;8.30;7.40;;;;;;;13.35;60.78;101292.23;1666038;85;20908;-79
2022/05/04 06:46:20;;;;;;;8.48;6.95;;;;;;;13.49;60.66;101295.47;1617582;87;20939;-77
2022/05/04 06:48:46;;;;;;;9.68;7.37;;;;;;;13.63;60.64;101295.20;1622280;88;20963;-77
2022/05/04 06:51:13;;;;;;;10.20;7.15;;;;;;;13.67;60.53;101290.36;1620079;87;20945;-77
2022/05/04 06:53:39;;;;;;;8.83;6.30;;;;;;;13.70;60.61;101293.77;1619430;88;20946;-77
2022/05/04 06:56:05;;;;;;;9.13;7.50;;;;;;;13.88;60.70;101305.13;1616233;87;20959;-77
2022/05/04 06:58:32;;;;;;;12.68;7.37;;;;;;;14.02;60.50;101298.81;1612427;88;20994;-77
2022/05/04 07:00:58;;;;;;;10.72;7.17;;;;;;;14.12;60.43;101308.12;1619963;87;20978;-77
2022/05/04 07:03:24;;;;;;;11.07;6.77;;;;;;;14.18;60.40;101303.66;1613989;87;21040;-78
2022/05/04 07:05:53;;;;;;;10.30;7.65;;;;;;;14.24;60.43;101312.64;1617817;88;20986;-78
2022/05/04 07:08:20;;;;;;;12.65;7.10;;;;;;;14.35;60.36;101308.52;1625524;88;20938;-77
2022/05/04 07:10:46;;;;;;;8.28;7.22;;;;;;;14.45;60.29;101308.78;1623523;87;20975;-77
2022/05/04 07:13:12;;;;;;;7.70;6.77;;;;;;;14.61;60.40;101311.89;1597598;88;20994;-77
2022/05/04 07:15:38;;;;;;;7.60;6.87;;;;;;;15.03;60.52;101310.08;1614502;88;21655;-77
2022/05/04 07:18:04;;;;;;;10.83;7.07;;;;;;;15.44;60.22;101310.36;1622878;88;20934;-77
2022/05/04 07:20:30;;;;;;;9.33;6.30;;;;;;;15.65;59.99;101318.09;1620318;87;20971;-77
2022/05/04 07:22:56;;;;;;;9.38;7.03;;;;;;;15.72;59.96;101315.73;1633809;86;21145;-78
2022/05/04 07:25:22;;;;;;;7.37;6.63;;;;;;;15.77;59.88;101316.48;1615764;88;20946;-77
2022/05/04 07:27:48;;;;;;;9.43;6.57;;;;;;;15.77;59.87;101315.17;1619721;87;20925;-77
2022/05/04 07:30:15;;;;;;;7.70;6.83;;;;;;;15.87;59.86;101310.12;1596458;88;20967;-77
2022/05/04 07:32:41;;;;;;;7.70;6.93;;;;;;;15.85;59.54;101311.06;1616526;87;20949;-77
2022/05/04 07:35:08;;;;;;;11.97;7.00;;;;;;;15.79;59.56;101310.77;1622653;88;20942;-78
2022/05/04 07:37:35;;;;;;;10.68;6.80;;;;;;;15.84;59.64;101312.81;1619755;88;21443;-78
2022/05/04 07:42:45;;;;;;;10.70;7.03;;;;;;;16.69;59.55;101291.68;1621822;87;21375;-77
2022/05/04 07:45:12;;;;;;;9.93;6.37;;;;;;;17.04;58.89;101310.19;1621345;88;20986;-77
2022/05/04 07:47:39;;;;;;;54.58;8.70;;;;;;;17.06;58.77;101306.62;1599159;88;25032;-77
2022/05/04 07:50:08;;;;;;;8.73;6.72;;;;;;;17.03;58.77;101302.80;1621269;88;20942;-77
2022/05/04 07:52:35;;;;;;;8.80;7.03;;;;;;;17.06;58.72;101313.61;1624519;88;20914;-78
2022/05/04 07:55:03;;;;;;;7.45;6.65;;;;;;;16.91;58.54;101310.16;1620338;87;25231;-77
2022/05/04 07:57:29;;;;;;;6.67;5.90;;;;;;;16.90;58.72;101308.00;1625648;86;20932;-77
2022/05/04 08:05:34;;;;;;;7.67;6.78;;;;;;;17.06;58.30;101314.91;1600117;87;20949;-77
2022/05/04 08:08:00;;;;;;;7.05;6.28;;;;;;;16.97;58.16;101312.13;1630819;86;20932;-77
2022/05/04 08:10:27;;;;;;;7.37;6.63;;;;;;;16.98;58.19;101309.92;1614357;88;21064;-77
2022/05/04 08:12:53;;;;;;;8.35;6.08;;;;;;;17.14;58.01;101315.52;1616122;88;20949;-81
2022/05/04 08:15:19;;;;;;;9.50;6.87;;;;;;;17.33;58.13;101313.14;1616544;87;20942;-77
2022/05/04 08:17:46;;;;;;;12.40;6.05;;;;;;;17.54;57.97;101313.74;1623802;87;20997;-77
2022/05/04 08:20:12;;;;;;;8.23;6.50;;;;;;;18.00;57.58;101321.32;1620948;87;20980;-78
2022/05/04 08:22:38;;;;;;;6.70;5.67;;;;;;;18.00;57.58;101321.32;1621406;87;20995;-77
2022/05/04 08:25:05;;;;;;;6.97;5.85;;;;;;;18.25;57.47;101323.89;1619869;87;20933;-77
2022/05/04 08:27:33;;;;;;;7.65;5.85;;;;;;;18.39;57.42;101322.47;1620318;87;20949;-77
2022/05/04 08:30:00;;;;;;;8.03;5.30;;;;;;;18.69;57.50;101323.12;1622477;87;20957;-78
2022/05/04 08:32:32;;;;;;;6.00;5.40;;;;;;;18.92;57.30;101322.20;1616443;87;20930;-78
2022/05/04 08:34:59;;;;;;;7.25;5.67;;;;;;;18.97;56.98;101320.26;1624781;87;20956;-78
2022/05/04 08:37:29;;;;;;;;;;;;;;;19.05;56.95;101322.13;1624330;87;21458;-78
2022/05/04 08:39:56;;;;;;;8.68;5.67;;;;;;;19.22;56.54;101320.13;1614420;87;20113;-78
2022/05/04 08:42:22;;;;;;;10.75;5.58;;;;;;;19.19;56.36;101317.64;1621544;87;20937;-78
2022/05/04 08:44:54;;;;;;;11.35;6.33;;;;;;;19.31;56.51;101322.81;1614872;87;20981;-78
2022/05/04 08:47:22;;;;;;;6.53;5.33;;;;;;;19.34;56.07;101309.11;1613776;88;20914;-78
2022/05/04 08:49:49;;;;;;;5.53;5.00;;;;;;;19.53;56.22;101313.62;1614507;88;20952;-77
2022/05/04 08:52:15;;;;;;;5.90;4.97;;;;;;;19.76;56.05;101310.39;1613948;88;20941;-79
2022/05/04 08:54:44;;;;;;;5.00;4.50;;;;;;;19.97;55.85;101311.70;1614319;88;20950;-79
2022/05/04 08:57:11;;;;;;;7.85;4.55;;;;;;;19.97;55.50;101305.98;1615787;88;22111;-78
2022/05/04 08:59:37;;;;;;;5.28;4.20;;;;;;;20.02;55.46;101305.33;1614319;88;21497;-78
2022/05/04 09:02:03;;;;;;;9.70;4.45;;;;;;;20.12;55.26;101303.16;1594144;88;20893;-78
2022/05/04 09:04:31;;;;;;;5.53;5.03;;;;;;;20.13;55.04;101297.83;1589352;88;20994;-78
2022/05/04 09:07:00;;;;;;;4.65;4.25;;;;;;;20.03;54.71;101304.41;1603873;87;21461;-78
2022/05/04 09:09:25;;;;;;;6.97;4.40;;;;;;;19.87;54.65;101305.15;1611432;87;21012;-78
2022/05/04 09:11:52;;;;;;;4.50;4.10;;;;;;;19.74;54.37;101307.02;1600423;87;20953;-78
2022/05/04 09:14:20;;;;;;;6.58;4.33;;;;;;;19.64;54.29;101303.54;1605177;87;21027;-78
2022/05/04 09:16:52;;;;;;;6.70;4.12;;;;;;;19.66;54.19;101299.08;1605489;89;21038;-78
2022/05/04 09:19:18;;;;;;;4.28;3.95;;;;;;;19.76;54.06;101295.97;1641718;86;20933;-78
2022/05/04 09:21:47;;;;;;;6.87;4.62;;;;;;;19.77;53.66;101291.56;1640033;85;20964;-78
2022/05/04 09:24:28;;;;;;;4.80;4.20;;;;;;;19.59;53.25;101303.73;1643292;86;20922;-78
2022/05/04 09:26:59;;;;;;;6.78;4.33;;;;;;;19.45;53.30;101296.87;1644017;86;20913;-78
2022/05/04 09:29:36;;;;;;;9.23;4.00;;;;;;;19.37;53.27;101292.40;1640940;85;21457;-78
2022/05/04 09:32:15;;;;;;;3.98;3.52;;;;;;;19.38;53.10;101287.09;1643213;85;21401;-78
2022/05/04 09:34:42;;;;;;;6.75;3.55;;;;;;;19.49;52.91;101288.80;1645164;86;20985;-78
2022/05/04 09:45:39;;;;;;;4.20;3.80;;;;;;;19.26;52.26;101281.04;1650641;86;21502;-79
2022/05/04 09:48:07;;;;;;;5.58;3.90;;;;;;;19.05;51.66;101284.11;1643335;85;21410;-77
2022/05/04 09:50:40;;;;;;;5.53;4.08;;;;;;;19.00;51.77;101283.90;1655908;86;20949;-79
2022/05/04 09:53:06;;;;;;;8.28;3.98;;;;;;;18.98;51.52;101286.58;1656464;86;21370;-79
2022/05/04 09:55:33;;;;;;;4.90;4.15;;;;;;;18.84;51.44;101273.17;1658298;85;20932;-79
2022/05/04 09:57:59;;;;;;;6.33;4.47;;;;;;;18.85;51.35;101277.04;1654178;85;26963;-79
2022/05/04 10:00:27;;;;;;;8.90;4.27;;;;;;;18.73;51.07;101278.83;1649070;86;21761;-79
2022/05/04 10:02:57;;;;;;;4.78;4.35;;;;;;;18.60;51.06;101272.39;1648082;86;20922;-79
2022/05/04 10:05:23;;;;;;;4.08;3.47;;;;;;;18.56;50.88;101264.68;1648343;86;20949;-78
2022/05/04 10:07:52;;;;;;;9.93;3.62;;;;;;;18.51;50.88;101272.25;1649640;86;21405;-78
2022/05/04 10:10:24;;;;;;;3.45;3.02;;;;;;;18.48;50.70;101262.35;1645141;85;21429;-77
2022/05/04 10:12:50;;;;;;;3.47;3.02;;;;;;;18.44;50.43;101260.77;1627881;86;21436;-77
2022/05/04 10:15:19;;;;;;;4.60;3.47;;;;;;;18.46;50.54;101266.80;1654380;86;21452;-78
2022/05/04 10:18:04;;;;;;;4.80;3.85;;;;;;;18.49;50.38;101260.98;1650431;85;20940;-78
2022/05/04 10:20:35;;;;;;;4.97;3.80;;;;;;;18.48;50.11;101261.05;1656330;86;21428;-79
2022/05/04 10:23:26;;;;;;;4.40;3.87;;;;;;;18.40;49.99;101256.55;1650322;85;21432;-79
2022/05/04 10:25:52;;;;;;;53.78;5.53;;;;;;;18.27;50.00;101260.09;1657005;86;20975;-79
2022/05/04 10:28:18;;;;;;;7.80;3.83;;;;;;;18.17;49.85;101265.30;1653218;85;20948;-78
2022/05/04 10:30:58;;;;;;;6.23;3.90;;;;;;;18.04;49.82;101256.19;1653667;85;20989;-78
2022/05/04 10:33:35;;;;;;;3.60;3.17;;;;;;;17.94;49.64;101260.05;1660922;86;20969;-78
2022/05/04 10:36:23;;;;;;;3.83;3.35;;;;;;;17.82;49.73;101256.11;1654074;86;20932;-79
2022/05/04 10:38:58;;;;;;;4.58;3.15;;;;;;;17.77;49.57;101252.34;1657290;85;20908;-78
2022/05/04 10:41:38;;;;;;;3.37;2.85;;;;;;;17.80;49.61;101249.62;1646963;86;20972;-78
2022/05/04 10:44:10;;;;;;;7.15;3.17;;;;;;;17.87;49.42;101242.41;1632617;86;21414;-79
2022/05/04 10:46:40;;;;;;;5.05;3.27;;;;;;;18.03;49.52;101243.56;1639572;86;20913;-79
2022/05/04 10:49:10;;;;;;;2.50;2.30;;;;;;;18.22;49.37;101241.08;1635343;86;21426;-79
2022/05/04 10:51:39;;;;;;;2.65;2.40;;;;;;;18.36;49.25;101230.09;1635601;86;21433;-79
2022/05/04 10:54:19;;;;;;;3.98;2.75;;;;;;;18.38;48.87;101242.66;1630151;87;20935;-79
2022/05/04 10:56:50;;;;;;;2.60;2.40;;;;;;;18.27;48.78;101239.14;1636659;86;20949;-79
2022/05/04 10:59:32;;;;;;;3.83;2.77;;;;;;;18.25;48.68;101236.19;1635440;86;20953;-79
2022/05/04 11:02:08;;;;;;;2.92;2.08;;;;;;;18.27;48.62;101234.36;1634111;86;21565;-78
2022/05/04 11:04:33;;;;;;;3.47;2.08;;;;;;;18.46;48.75;101235.38;1633502;86;20938;-78
2022/05/04 11:07:07;;;;;;;4.12;2.17;;;;;;;18.60;48.50;101234.41;1635126;86;20961;-78
2022/05/04 11:09:42;;;;;;;4.30;2.15;;;;;;;18.70;48.40;101229.66;1634776;87;20929;-78
2022/05/04 11:12:11;;;;;;;2.10;1.70;;;;;;;18.77;48.28;101233.25;1646184;86;21385;-78
2022/05/04 11:14:38;;;;;;;3.77;2.02;;;;;;;18.83;48.15;101225.15;1634757;87;20921;-78
2022/05/04 11:17:16;;;;;;;3.72;2.00;;;;;;;18.94;48.09;101230.41;1637209;86;20940;-79
2022/05/04 11:19:48;;;;;;;3.52;1.90;;;;;;;19.02;47.87;101232.27;1636418;86;20950;-78
2022/05/04 11:22:21;;;;;;;2.22;1.95;;;;;;;19.11;47.91;101240.61;1633183;87;21017;-78
2022/05/04 11:24:50;;;;;;;2.63;2.43;;;;;;;19.22;47.67;101234.06;1633351;87;21120;-78
2022/05/04 11:27:16;;;;;;;4.40;2.27;;;;;;;19.30;47.58;101236.73;1633710;86;21111;-79
2022/05/04 11:29:44;;;;;;;2.40;2.20;;;;;;;19.29;47.27;101226.30;1632464;86;21655;-79
2022/05/04 11:32:17;;;;;;;3.10;2.08;;;;;;;19.31;47.21;101231.02;1634473;86;21260;-79
2022/05/04 11:34:40;;;;;;;3.30;2.70;;;;;;;19.38;47.13;101232.02;1602394;89;21443;-78
2022/05/04 11:37:09;;;;;;;4.33;2.45;;;;;;;19.43;47.03;101233.98;1601865;88;21472;-78
2022/05/04 11:39:38;;;;;;;2.42;2.22;;;;;;;19.49;47.01;101233.72;1583756;89;21590;-78
2022/05/04 11:42:08;;;;;;;3.27;2.58;;;;;;;19.50;46.78;101231.95;1600981;87;21077;-78
2022/05/04 11:44:34;;;;;;;2.87;1.95;;;;;;;19.46;46.77;101233.85;1614854;87;21543;-78
2022/05/04 11:47:03;;;;;;;2.23;1.97;;;;;;;19.48;46.64;101232.02;1598253;88;21597;-78
2022/05/04 11:49:34;;;;;;;2.30;2.10;;;;;;;19.42;46.53;101230.97;1615755;87;21628;-78
2022/05/04 11:52:00;;;;;;;2.62;2.42;;;;;;;19.43;46.52;101234.44;1628241;86;21445;-79
2022/05/04 11:54:27;;;;;;;2.65;2.45;;;;;;;19.47;46.49;101229.45;1621655;86;20957;-78
2022/05/04 11:56:53;;;;;;;3.33;2.23;;;;;;;19.49;46.31;101228.93;1625217;87;21534;-78
2022/05/04 11:59:19;;;;;;;2.70;2.50;;;;;;;19.48;46.26;101224.60;1604585;87;21342;-78
2022/05/04 12:01:47;;;;;;;2.47;2.27;;;;;;;19.47;46.13;101226.83;1616369;87;21104;-78
2022/05/04 12:04:14;;;;;;;2.30;2.10;;;;;;;19.47;46.15;101221.59;1601061;88;21210;-79